createdAt,value
2019-04-23T20:32:07.158Z,22.14
2019-04-23T20:33:40.930Z,22.19
2019-04-23T20:35:46.922Z,22.18
2019-04-23T20:38:33.414Z,22.19
2019-04-23T20:40:48.338Z,22.22
2019-04-23T20:43:34.583Z,22.27
2019-04-23T20:45:46.949Z,22.27
2019-04-23T20:48:37.208Z,22.25
2019-04-23T20:50:41.010Z,22.24
2019-04-23T20:53:03.571Z,22.23
2019-04-23T20:55:54.648Z,22.21
2019-04-23T20:58:14.194Z,22.20
2019-04-23T21:01:22.276Z,22.20
2019-04-23T21:03:49.122Z,22.20
2019-04-23T21:06:19.392Z,22.18
2019-04-23T21:11:18.584Z,22.16
2019-04-23T21:16:13.112Z,22.15
2019-04-23T21:18:44.291Z,22.14
2019-04-23T21:23:53.665Z,22.11
2019-04-23T21:26:01.927Z,22.10
2019-04-23T21:28:44.447Z,22.09
2019-04-23T21:31:15.644Z,22.09
2019-04-23T21:33:59.629Z,22.09
2019-04-23T21:46:46.903Z,22.09
2019-04-23T21:54:07.949Z,22.02
2019-04-23T21:56:44.475Z,21.95
2019-04-23T21:59:22.787Z,21.91
2019-04-23T22:01:44.765Z,21.87
2019-04-23T22:04:15.091Z,21.84
2019-04-23T22:06:43.405Z,21.82
2019-04-23T22:09:15.309Z,21.79
2019-04-23T22:11:56.904Z,21.77
2019-04-23T22:14:10.288Z,21.77
2019-04-23T22:16:55.766Z,21.75
2019-04-23T22:21:47.204Z,21.73
2019-04-23T22:26:35.348Z,21.72
2019-04-23T22:29:14.269Z,21.69
2019-04-23T22:34:08.727Z,21.65
2019-04-23T22:36:54.871Z,21.64
2019-04-23T22:39:07.734Z,21.63
2019-04-23T22:46:48.113Z,21.59
2019-04-23T22:49:20.066Z,21.59
2019-04-23T22:56:53.638Z,21.54
2019-04-23T22:59:26.650Z,21.52
2019-04-23T23:06:57.330Z,21.47
2019-04-23T23:09:40.653Z,21.46
2019-04-23T23:11:49.046Z,21.47
2019-04-23T23:16:44.981Z,21.43
2019-04-23T23:21:59.427Z,21.44
2019-04-23T23:26:49.694Z,21.39
2019-04-23T23:29:06.344Z,21.34
2019-04-23T23:31:42.287Z,21.32
2019-04-23T23:34:09.999Z,21.31
2019-04-23T23:36:47.633Z,21.30
2019-04-23T23:39:21.161Z,21.28
2019-04-23T23:41:44.874Z,21.27
2019-04-23T23:44:28.448Z,21.26
2019-04-23T23:49:03.297Z,21.24
2019-04-23T23:51:40.597Z,21.23
2019-04-23T23:54:08.234Z,21.21
2019-04-23T23:57:01.771Z,21.20
